sensor_id;sensor_type;location;lat;lon;timestamp;P1;durP1;ratioP1;P2;durP2;ratioP2
11797;SDS011;5956;51.428;6.682;2023-02-15T00:01:21;24.27;;;20.17;;
11797;SDS011;5956;51.428;6.682;2023-02-15T00:03:48;27.33;;;21.53;;
11797;SDS011;5956;51.428;6.682;2023-02-15T00:06:15;26.43;;;21.50;;
11797;SDS011;5956;51.428;6.682;2023-02-15T00:08:42;27.20;;;21.83;;
11797;SDS011;5956;51.428;6.682;2023-02-15T00:11:08;24.80;;;20.43;;
11797;SDS011;5956;51.428;6.682;2023-02-15T00:13:36;25.20;;;20.80;;
11797;SDS011;5956;51.428;6.682;2023-02-15T00:16:04;24.97;;;21.17;;
11797;SDS011;5956;51.428;6.682;2023-02-15T00:18:31;29.30;;;21.43;;
11797;SDS011;5956;51.428;6.682;2023-02-15T00:21:02;27.77;;;22.53;;
11797;SDS011;5956;51.428;6.682;2023-02-15T00:23:29;27.23;;;21.77;;
11797;SDS011;5956;51.428;6.682;2023-02-15T00:26:02;27.17;;;21.77;;
11797;SDS011;5956;51.428;6.682;2023-02-15T00:28:29;25.87;;;21.20;;
11797;SDS011;5956;51.428;6.682;2023-02-15T00:31:01;27.37;;;20.43;;
11797;SDS011;5956;51.428;6.682;2023-02-15T00:33:27;25.13;;;20.37;;
11797;SDS011;5956;51.428;6.682;2023-02-15T00:35:55;25.57;;;21.13;;
11797;SDS011;5956;51.428;6.682;2023-02-15T00:38:23;24.43;;;20.83;;
11797;SDS011;5956;51.428;6.682;2023-02-15T00:40:51;27.87;;;22.33;;
11797;SDS011;5956;51.428;6.682;2023-02-15T00:43:18;27.40;;;21.13;;
11797;SDS011;5956;51.428;6.682;2023-02-15T00:45:44;25.87;;;20.50;;
11797;SDS011;5956;51.428;6.682;2023-02-15T00:48:11;26.60;;;21.90;;
11797;SDS011;5956;51.428;6.682;2023-02-15T00:50:37;25.73;;;21.73;;
11797;SDS011;5956;51.428;6.682;2023-02-15T00:53:04;28.50;;;21.07;;
11797;SDS011;5956;51.428;6.682;2023-02-15T00:55:32;25.53;;;21.80;;
11797;SDS011;5956;51.428;6.682;2023-02-15T00:57:58;28.73;;;23.30;;
11797;SDS011;5956;51.428;6.682;2023-02-15T01:00:24;28.20;;;21.93;;
11797;SDS011;5956;51.428;6.682;2023-02-15T01:02:51;26.20;;;21.33;;
11797;SDS011;5956;51.428;6.682;2023-02-15T01:05:17;27.20;;;21.77;;
11797;SDS011;5956;51.428;6.682;2023-02-15T01:07:44;28.40;;;23.00;;
11797;SDS011;5956;51.428;6.682;2023-02-15T01:10:10;26.13;;;22.53;;
11797;SDS011;5956;51.428;6.682;2023-02-15T01:12:38;27.03;;;22.53;;
11797;SDS011;5956;51.428;6.682;2023-02-15T01:15:05;29.33;;;22.13;;
11797;SDS011;5956;51.428;6.682;2023-02-15T01:17:32;28.47;;;22.70;;
11797;SDS011;5956;51.428;6.682;2023-02-15T01:19:58;29.83;;;23.13;;
11797;SDS011;5956;51.428;6.682;2023-02-15T01:22:25;28.60;;;22.97;;
11797;SDS011;5956;51.428;6.682;2023-02-15T01:24:51;28.53;;;23.30;;
11797;SDS011;5956;51.428;6.682;2023-02-15T01:27:18;28.53;;;23.07;;
11797;SDS011;5956;51.428;6.682;2023-02-15T01:29:46;27.60;;;22.87;;
11797;SDS011;5956;51.428;6.682;2023-02-15T01:32:13;28.60;;;22.87;;
11797;SDS011;5956;51.428;6.682;2023-02-15T01:34:39;26.33;;;21.80;;
11797;SDS011;5956;51.428;6.682;2023-02-15T01:37:06;26.40;;;22.33;;
11797;SDS011;5956;51.428;6.682;2023-02-15T01:39:32;26.83;;;22.80;;
11797;SDS011;5956;51.428;6.682;2023-02-15T01:41:59;29.03;;;22.43;;
11797;SDS011;5956;51.428;6.682;2023-02-15T01:44:46;28.10;;;22.77;;
11797;SDS011;5956;51.428;6.682;2023-02-15T01:47:14;28.60;;;22.23;;
11797;SDS011;5956;51.428;6.682;2023-02-15T01:49:42;30.80;;;23.77;;
11797;SDS011;5956;51.428;6.682;2023-02-15T01:52:09;27.97;;;21.90;;
11797;SDS011;5956;51.428;6.682;2023-02-15T01:54:36;29.23;;;24.17;;
11797;SDS011;5956;51.428;6.682;2023-02-15T01:57:04;28.77;;;23.27;;
11797;SDS011;5956;51.428;6.682;2023-02-15T01:59:32;29.50;;;23.57;;
11797;SDS011;5956;51.428;6.682;2023-02-15T02:02:00;29.43;;;23.00;;
11797;SDS011;5956;51.428;6.682;2023-02-15T02:04:29;28.63;;;23.00;;
11797;SDS011;5956;51.428;6.682;2023-02-15T02:06:57;29.93;;;22.47;;
11797;SDS011;5956;51.428;6.682;2023-02-15T02:09:24;27.13;;;22.83;;
11797;SDS011;5956;51.428;6.682;2023-02-15T02:11:51;28.90;;;23.83;;
11797;SDS011;5956;51.428;6.682;2023-02-15T02:14:19;27.57;;;23.67;;
11797;SDS011;5956;51.428;6.682;2023-02-15T02:16:47;28.20;;;24.47;;
11797;SDS011;5956;51.428;6.682;2023-02-15T02:19:32;31.77;;;24.60;;
11797;SDS011;5956;51.428;6.682;2023-02-15T02:22:07;28.63;;;23.13;;
11797;SDS011;5956;51.428;6.682;2023-02-15T02:24:44;27.53;;;22.40;;
11797;SDS011;5956;51.428;6.682;2023-02-15T02:27:28;29.97;;;24.07;;
11797;SDS011;5956;51.428;6.682;2023-02-15T02:30:02;29.37;;;23.63;;
11797;SDS011;5956;51.428;6.682;2023-02-15T02:35:21;30.27;;;23.40;;
11797;SDS011;5956;51.428;6.682;2023-02-15T02:37:51;30.70;;;22.90;;
11797;SDS011;5956;51.428;6.682;2023-02-15T02:40:20;31.50;;;24.50;;
11797;SDS011;5956;51.428;6.682;2023-02-15T02:42:52;32.23;;;23.70;;
11797;SDS011;5956;51.428;6.682;2023-02-15T02:45:24;29.13;;;23.67;;
11797;SDS011;5956;51.428;6.682;2023-02-15T02:47:52;26.27;;;22.33;;
11797;SDS011;5956;51.428;6.682;2023-02-15T02:50:22;32.43;;;24.53;;
11797;SDS011;5956;51.428;6.682;2023-02-15T02:52:50;31.13;;;24.13;;
11797;SDS011;5956;51.428;6.682;2023-02-15T02:55:21;28.67;;;23.77;;
11797;SDS011;5956;51.428;6.682;2023-02-15T02:57:55;31.67;;;25.33;;
11797;SDS011;5956;51.428;6.682;2023-02-15T03:00:29;30.70;;;23.33;;
11797;SDS011;5956;51.428;6.682;2023-02-15T03:02:56;29.63;;;23.00;;
11797;SDS011;5956;51.428;6.682;2023-02-15T03:05:26;29.23;;;22.87;;
11797;SDS011;5956;51.428;6.682;2023-02-15T03:07:53;27.30;;;22.37;;
11797;SDS011;5956;51.428;6.682;2023-02-15T03:10:20;28.47;;;22.90;;
11797;SDS011;5956;51.428;6.682;2023-02-15T03:12:48;29.77;;;23.20;;
11797;SDS011;5956;51.428;6.682;2023-02-15T03:15:16;30.47;;;23.80;;
11797;SDS011;5956;51.428;6.682;2023-02-15T03:17:46;29.93;;;24.10;;
11797;SDS011;5956;51.428;6.682;2023-02-15T03:20:14;28.33;;;23.37;;
11797;SDS011;5956;51.428;6.682;2023-02-15T03:22:44;31.37;;;24.77;;
11797;SDS011;5956;51.428;6.682;2023-02-15T03:25:13;30.40;;;25.30;;
11797;SDS011;5956;51.428;6.682;2023-02-15T03:27:41;30.17;;;24.70;;
11797;SDS011;5956;51.428;6.682;2023-02-15T03:30:09;30.43;;;25.07;;
11797;SDS011;5956;51.428;6.682;2023-02-15T03:32:36;29.73;;;23.53;;
11797;SDS011;5956;51.428;6.682;2023-02-15T03:35:03;30.07;;;23.90;;
11797;SDS011;5956;51.428;6.682;2023-02-15T03:37:31;30.93;;;24.20;;
11797;SDS011;5956;51.428;6.682;2023-02-15T03:40:00;28.77;;;23.80;;
11797;SDS011;5956;51.428;6.682;2023-02-15T03:42:51;30.87;;;23.60;;
11797;SDS011;5956;51.428;6.682;2023-02-15T03:45:21;30.83;;;24.27;;
11797;SDS011;5956;51.428;6.682;2023-02-15T03:47:49;31.00;;;23.97;;
11797;SDS011;5956;51.428;6.682;2023-02-15T03:50:17;28.70;;;22.60;;
11797;SDS011;5956;51.428;6.682;2023-02-15T03:53:02;29.93;;;23.00;;
11797;SDS011;5956;51.428;6.682;2023-02-15T03:55:32;29.27;;;23.67;;
11797;SDS011;5956;51.428;6.682;2023-02-15T03:57:59;31.90;;;23.77;;
11797;SDS011;5956;51.428;6.682;2023-02-15T04:00:44;32.47;;;22.93;;
11797;SDS011;5956;51.428;6.682;2023-02-15T04:03:32;29.10;;;22.47;;
11797;SDS011;5956;51.428;6.682;2023-02-15T04:06:00;29.17;;;23.43;;
11797;SDS011;5956;51.428;6.682;2023-02-15T04:08:29;30.37;;;24.17;;
11797;SDS011;5956;51.428;6.682;2023-02-15T04:11:11;28.70;;;22.50;;
11797;SDS011;5956;51.428;6.682;2023-02-15T04:13:40;29.47;;;23.23;;
11797;SDS011;5956;51.428;6.682;2023-02-15T04:16:12;30.50;;;24.00;;
11797;SDS011;5956;51.428;6.682;2023-02-15T04:18:38;30.70;;;24.77;;
11797;SDS011;5956;51.428;6.682;2023-02-15T04:21:23;29.60;;;24.17;;
11797;SDS011;5956;51.428;6.682;2023-02-15T04:24:07;33.77;;;23.93;;
11797;SDS011;5956;51.428;6.682;2023-02-15T04:26:52;28.63;;;23.20;;
11797;SDS011;5956;51.428;6.682;2023-02-15T04:29:19;29.17;;;23.47;;
11797;SDS011;5956;51.428;6.682;2023-02-15T04:31:45;30.80;;;23.60;;
11797;SDS011;5956;51.428;6.682;2023-02-15T04:34:12;28.87;;;23.10;;
11797;SDS011;5956;51.428;6.682;2023-02-15T04:36:39;29.03;;;23.70;;
11797;SDS011;5956;51.428;6.682;2023-02-15T04:39:06;30.60;;;24.83;;
11797;SDS011;5956;51.428;6.682;2023-02-15T04:41:32;30.83;;;24.73;;
11797;SDS011;5956;51.428;6.682;2023-02-15T04:44:00;29.70;;;24.57;;
11797;SDS011;5956;51.428;6.682;2023-02-15T04:46:27;31.20;;;24.53;;
11797;SDS011;5956;51.428;6.682;2023-02-15T04:48:53;30.67;;;24.27;;
11797;SDS011;5956;51.428;6.682;2023-02-15T04:51:20;27.77;;;22.20;;
11797;SDS011;5956;51.428;6.682;2023-02-15T04:53:46;29.07;;;23.53;;
11797;SDS011;5956;51.428;6.682;2023-02-15T04:56:13;27.87;;;23.47;;
11797;SDS011;5956;51.428;6.682;2023-02-15T04:58:39;30.10;;;24.43;;
11797;SDS011;5956;51.428;6.682;2023-02-15T05:01:07;30.17;;;23.50;;
11797;SDS011;5956;51.428;6.682;2023-02-15T05:03:34;31.17;;;24.37;;
11797;SDS011;5956;51.428;6.682;2023-02-15T05:06:01;32.40;;;23.87;;
11797;SDS011;5956;51.428;6.682;2023-02-15T05:08:27;30.53;;;23.53;;
11797;SDS011;5956;51.428;6.682;2023-02-15T05:10:53;35.83;;;25.00;;
11797;SDS011;5956;51.428;6.682;2023-02-15T05:13:20;33.73;;;25.93;;
11797;SDS011;5956;51.428;6.682;2023-02-15T05:15:47;31.97;;;23.60;;
11797;SDS011;5956;51.428;6.682;2023-02-15T05:18:16;33.67;;;24.47;;
11797;SDS011;5956;51.428;6.682;2023-02-15T05:20:42;32.20;;;24.40;;
11797;SDS011;5956;51.428;6.682;2023-02-15T05:23:09;31.93;;;25.33;;
11797;SDS011;5956;51.428;6.682;2023-02-15T05:25:36;33.17;;;25.07;;
11797;SDS011;5956;51.428;6.682;2023-02-15T05:28:20;29.30;;;22.80;;
11797;SDS011;5956;51.428;6.682;2023-02-15T05:30:47;30.77;;;23.70;;
11797;SDS011;5956;51.428;6.682;2023-02-15T05:33:13;34.43;;;25.07;;
11797;SDS011;5956;51.428;6.682;2023-02-15T05:35:41;44.00;;;30.00;;
11797;SDS011;5956;51.428;6.682;2023-02-15T05:38:08;44.43;;;31.60;;
11797;SDS011;5956;51.428;6.682;2023-02-15T05:40:34;39.77;;;29.03;;
11797;SDS011;5956;51.428;6.682;2023-02-15T05:43:00;31.90;;;23.90;;
11797;SDS011;5956;51.428;6.682;2023-02-15T05:45:27;31.87;;;24.83;;
11797;SDS011;5956;51.428;6.682;2023-02-15T05:47:53;31.83;;;23.57;;
11797;SDS011;5956;51.428;6.682;2023-02-15T05:50:20;33.73;;;23.97;;
11797;SDS011;5956;51.428;6.682;2023-02-15T05:52:48;32.80;;;24.90;;
11797;SDS011;5956;51.428;6.682;2023-02-15T05:55:14;32.47;;;24.13;;
11797;SDS011;5956;51.428;6.682;2023-02-15T05:57:41;31.60;;;24.03;;
11797;SDS011;5956;51.428;6.682;2023-02-15T06:00:07;46.53;;;33.83;;
11797;SDS011;5956;51.428;6.682;2023-02-15T06:02:35;39.80;;;28.40;;
11797;SDS011;5956;51.428;6.682;2023-02-15T06:05:02;32.10;;;24.70;;
11797;SDS011;5956;51.428;6.682;2023-02-15T06:07:28;36.07;;;26.10;;
11797;SDS011;5956;51.428;6.682;2023-02-15T06:09:56;33.23;;;25.23;;
11797;SDS011;5956;51.428;6.682;2023-02-15T06:12:25;31.47;;;25.47;;
11797;SDS011;5956;51.428;6.682;2023-02-15T06:20:57;32.27;;;24.50;;
11797;SDS011;5956;51.428;6.682;2023-02-15T06:23:23;33.80;;;24.33;;
11797;SDS011;5956;51.428;6.682;2023-02-15T06:25:51;47.53;;;33.53;;
11797;SDS011;5956;51.428;6.682;2023-02-15T06:28:18;33.40;;;26.60;;
11797;SDS011;5956;51.428;6.682;2023-02-15T06:30:44;32.97;;;25.63;;
11797;SDS011;5956;51.428;6.682;2023-02-15T06:33:11;32.43;;;25.07;;
11797;SDS011;5956;51.428;6.682;2023-02-15T06:35:37;32.13;;;24.47;;
11797;SDS011;5956;51.428;6.682;2023-02-15T06:38:03;29.30;;;22.03;;
11797;SDS011;5956;51.428;6.682;2023-02-15T06:40:30;32.30;;;23.17;;
11797;SDS011;5956;51.428;6.682;2023-02-15T06:42:58;28.73;;;22.63;;
11797;SDS011;5956;51.428;6.682;2023-02-15T06:45:24;30.47;;;23.80;;
11797;SDS011;5956;51.428;6.682;2023-02-15T06:47:50;31.17;;;23.40;;
11797;SDS011;5956;51.428;6.682;2023-02-15T06:50:17;30.57;;;24.67;;
11797;SDS011;5956;51.428;6.682;2023-02-15T06:52:43;29.77;;;23.17;;
11797;SDS011;5956;51.428;6.682;2023-02-15T06:55:10;29.67;;;23.23;;
11797;SDS011;5956;51.428;6.682;2023-02-15T06:57:36;29.97;;;22.93;;
11797;SDS011;5956;51.428;6.682;2023-02-15T07:00:05;31.40;;;22.60;;
11797;SDS011;5956;51.428;6.682;2023-02-15T07:02:31;29.13;;;23.30;;
11797;SDS011;5956;51.428;6.682;2023-02-15T07:04:58;30.03;;;23.67;;
11797;SDS011;5956;51.428;6.682;2023-02-15T07:07:25;29.40;;;23.30;;
11797;SDS011;5956;51.428;6.682;2023-02-15T07:09:51;29.63;;;22.87;;
11797;SDS011;5956;51.428;6.682;2023-02-15T07:12:17;28.17;;;21.43;;
11797;SDS011;5956;51.428;6.682;2023-02-15T07:15:02;29.87;;;22.57;;
11797;SDS011;5956;51.428;6.682;2023-02-15T07:17:32;27.87;;;22.20;;
11797;SDS011;5956;51.428;6.682;2023-02-15T07:19:59;31.47;;;23.20;;
11797;SDS011;5956;51.428;6.682;2023-02-15T07:22:25;29.20;;;21.67;;
11797;SDS011;5956;51.428;6.682;2023-02-15T07:24:52;28.83;;;21.73;;
11797;SDS011;5956;51.428;6.682;2023-02-15T07:27:19;30.47;;;23.97;;
11797;SDS011;5956;51.428;6.682;2023-02-15T07:29:46;28.27;;;22.47;;
11797;SDS011;5956;51.428;6.682;2023-02-15T07:32:12;28.73;;;22.13;;
11797;SDS011;5956;51.428;6.682;2023-02-15T07:34:41;29.27;;;22.87;;
11797;SDS011;5956;51.428;6.682;2023-02-15T07:37:07;29.23;;;23.43;;
11797;SDS011;5956;51.428;6.682;2023-02-15T07:39:34;30.43;;;24.17;;
11797;SDS011;5956;51.428;6.682;2023-02-15T07:42:00;29.30;;;22.30;;
11797;SDS011;5956;51.428;6.682;2023-02-15T07:44:26;28.97;;;22.60;;
11797;SDS011;5956;51.428;6.682;2023-02-15T07:46:53;30.97;;;23.77;;
11797;SDS011;5956;51.428;6.682;2023-02-15T07:49:19;29.03;;;23.03;;
11797;SDS011;5956;51.428;6.682;2023-02-15T07:51:47;29.67;;;23.43;;
11797;SDS011;5956;51.428;6.682;2023-02-15T07:54:13;29.53;;;21.83;;
11797;SDS011;5956;51.428;6.682;2023-02-15T07:56:40;30.50;;;22.80;;
11797;SDS011;5956;51.428;6.682;2023-02-15T07:59:06;29.70;;;23.73;;
11797;SDS011;5956;51.428;6.682;2023-02-15T08:01:35;32.00;;;23.33;;
11797;SDS011;5956;51.428;6.682;2023-02-15T08:04:02;30.57;;;22.63;;
11797;SDS011;5956;51.428;6.682;2023-02-15T08:06:31;30.13;;;23.70;;
11797;SDS011;5956;51.428;6.682;2023-02-15T08:08:59;32.53;;;22.73;;
11797;SDS011;5956;51.428;6.682;2023-02-15T08:11:27;30.73;;;23.17;;
11797;SDS011;5956;51.428;6.682;2023-02-15T08:14:03;30.27;;;23.00;;
11797;SDS011;5956;51.428;6.682;2023-02-15T08:16:30;28.47;;;22.13;;
11797;SDS011;5956;51.428;6.682;2023-02-15T08:18:58;32.10;;;22.77;;
11797;SDS011;5956;51.428;6.682;2023-02-15T08:21:25;26.27;;;21.90;;
11797;SDS011;5956;51.428;6.682;2023-02-15T08:23:52;28.73;;;22.13;;
11797;SDS011;5956;51.428;6.682;2023-02-15T08:26:20;27.73;;;21.00;;
11797;SDS011;5956;51.428;6.682;2023-02-15T08:28:46;28.63;;;22.57;;
11797;SDS011;5956;51.428;6.682;2023-02-15T08:31:14;28.97;;;22.10;;
11797;SDS011;5956;51.428;6.682;2023-02-15T08:33:42;27.63;;;21.43;;
11797;SDS011;5956;51.428;6.682;2023-02-15T08:36:09;29.10;;;21.87;;
11797;SDS011;5956;51.428;6.682;2023-02-15T08:38:36;29.10;;;21.57;;
11797;SDS011;5956;51.428;6.682;2023-02-15T08:41:09;29.00;;;22.50;;
11797;SDS011;5956;51.428;6.682;2023-02-15T08:43:38;28.83;;;22.33;;
11797;SDS011;5956;51.428;6.682;2023-02-15T08:46:05;28.70;;;22.73;;
11797;SDS011;5956;51.428;6.682;2023-02-15T08:48:31;31.30;;;23.67;;
11797;SDS011;5956;51.428;6.682;2023-02-15T08:50:58;33.80;;;25.43;;
11797;SDS011;5956;51.428;6.682;2023-02-15T08:53:24;39.17;;;25.77;;
11797;SDS011;5956;51.428;6.682;2023-02-15T08:55:54;33.70;;;24.27;;
11797;SDS011;5956;51.428;6.682;2023-02-15T08:58:21;31.07;;;22.67;;
11797;SDS011;5956;51.428;6.682;2023-02-15T09:00:49;31.23;;;22.50;;
11797;SDS011;5956;51.428;6.682;2023-02-15T09:03:15;29.23;;;21.23;;
11797;SDS011;5956;51.428;6.682;2023-02-15T09:05:42;29.13;;;22.20;;
11797;SDS011;5956;51.428;6.682;2023-02-15T09:08:08;27.60;;;21.30;;
11797;SDS011;5956;51.428;6.682;2023-02-15T09:10:34;24.10;;;20.30;;
11797;SDS011;5956;51.428;6.682;2023-02-15T09:13:01;26.73;;;20.80;;
11797;SDS011;5956;51.428;6.682;2023-02-15T09:15:27;27.13;;;21.03;;
11797;SDS011;5956;51.428;6.682;2023-02-15T09:17:55;30.23;;;22.60;;
11797;SDS011;5956;51.428;6.682;2023-02-15T09:20:24;27.33;;;20.47;;
11797;SDS011;5956;51.428;6.682;2023-02-15T09:22:51;25.63;;;19.63;;
11797;SDS011;5956;51.428;6.682;2023-02-15T09:25:17;22.70;;;18.53;;
11797;SDS011;5956;51.428;6.682;2023-02-15T09:27:44;23.80;;;19.40;;
11797;SDS011;5956;51.428;6.682;2023-02-15T09:30:11;24.13;;;19.27;;
11797;SDS011;5956;51.428;6.682;2023-02-15T09:32:37;23.80;;;19.80;;
11797;SDS011;5956;51.428;6.682;2023-02-15T09:35:05;24.67;;;19.20;;
11797;SDS011;5956;51.428;6.682;2023-02-15T09:37:32;22.80;;;18.43;;
11797;SDS011;5956;51.428;6.682;2023-02-15T09:39:58;25.13;;;19.23;;
11797;SDS011;5956;51.428;6.682;2023-02-15T09:42:31;22.13;;;18.10;;
11797;SDS011;5956;51.428;6.682;2023-02-15T09:45:14;22.33;;;17.50;;
11797;SDS011;5956;51.428;6.682;2023-02-15T09:47:52;8.80;;;7.90;;
11797;SDS011;5956;51.428;6.682;2023-02-15T09:50:22;36.97;;;25.47;;
11797;SDS011;5956;51.428;6.682;2023-02-15T09:52:56;34.13;;;23.37;;
11797;SDS011;5956;51.428;6.682;2023-02-15T09:55:38;24.37;;;19.33;;
11797;SDS011;5956;51.428;6.682;2023-02-15T09:58:11;23.00;;;18.97;;
11797;SDS011;5956;51.428;6.682;2023-02-15T10:00:41;23.33;;;19.07;;
11797;SDS011;5956;51.428;6.682;2023-02-15T10:03:12;24.27;;;19.53;;
11797;SDS011;5956;51.428;6.682;2023-02-15T10:05:44;24.97;;;18.03;;
11797;SDS011;5956;51.428;6.682;2023-02-15T10:08:29;23.43;;;19.10;;
11797;SDS011;5956;51.428;6.682;2023-02-15T10:11:02;24.07;;;18.10;;
11797;SDS011;5956;51.428;6.682;2023-02-15T10:13:53;24.03;;;19.20;;
11797;SDS011;5956;51.428;6.682;2023-02-15T10:16:26;22.77;;;17.70;;
11797;SDS011;5956;51.428;6.682;2023-02-15T10:18:55;23.00;;;18.43;;
11797;SDS011;5956;51.428;6.682;2023-02-15T10:21:29;21.87;;;18.27;;
11797;SDS011;5956;51.428;6.682;2023-02-15T10:24:12;20.37;;;16.80;;
11797;SDS011;5956;51.428;6.682;2023-02-15T10:26:44;20.37;;;16.77;;
11797;SDS011;5956;51.428;6.682;2023-02-15T10:29:13;21.63;;;17.30;;
11797;SDS011;5956;51.428;6.682;2023-02-15T10:31:46;21.80;;;16.93;;
11797;SDS011;5956;51.428;6.682;2023-02-15T10:34:15;19.37;;;17.33;;
11797;SDS011;5956;51.428;6.682;2023-02-15T10:39:33;20.50;;;16.37;;
11797;SDS011;5956;51.428;6.682;2023-02-15T10:42:05;20.70;;;16.50;;
11797;SDS011;5956;51.428;6.682;2023-02-15T10:44:38;19.52;;;16.58;;
11797;SDS011;5956;51.428;6.682;2023-02-15T10:52:42;19.27;;;16.23;;
11797;SDS011;5956;51.428;6.682;2023-02-15T10:55:14;20.53;;;16.20;;
11797;SDS011;5956;51.428;6.682;2023-02-15T10:57:46;21.03;;;16.17;;
11797;SDS011;5956;51.428;6.682;2023-02-15T11:00:16;17.33;;;14.83;;
11797;SDS011;5956;51.428;6.682;2023-02-15T11:05:36;18.60;;;14.97;;
11797;SDS011;5956;51.428;6.682;2023-02-15T11:08:06;20.33;;;15.70;;
11797;SDS011;5956;51.428;6.682;2023-02-15T11:10:35;16.33;;;14.63;;
11797;SDS011;5956;51.428;6.682;2023-02-15T11:13:05;19.20;;;15.20;;
11797;SDS011;5956;51.428;6.682;2023-02-15T11:15:32;31.83;;;22.13;;
11797;SDS011;5956;51.428;6.682;2023-02-15T11:18:00;17.57;;;15.17;;
11797;SDS011;5956;51.428;6.682;2023-02-15T11:20:29;16.80;;;15.00;;
11797;SDS011;5956;51.428;6.682;2023-02-15T11:22:58;8.70;;;7.10;;
11797;SDS011;5956;51.428;6.682;2023-02-15T11:25:28;19.00;;;14.40;;
11797;SDS011;5956;51.428;6.682;2023-02-15T11:27:57;18.70;;;15.33;;
11797;SDS011;5956;51.428;6.682;2023-02-15T11:30:25;22.60;;;15.70;;
11797;SDS011;5956;51.428;6.682;2023-02-15T11:32:52;41.97;;;18.17;;
11797;SDS011;5956;51.428;6.682;2023-02-15T11:35:22;20.83;;;14.57;;
11797;SDS011;5956;51.428;6.682;2023-02-15T11:37:51;18.93;;;16.20;;
11797;SDS011;5956;51.428;6.682;2023-02-15T11:40:20;18.10;;;16.07;;
11797;SDS011;5956;51.428;6.682;2023-02-15T11:42:49;18.37;;;15.77;;
11797;SDS011;5956;51.428;6.682;2023-02-15T11:45:21;20.23;;;15.33;;
11797;SDS011;5956;51.428;6.682;2023-02-15T11:47:48;17.23;;;14.87;;
11797;SDS011;5956;51.428;6.682;2023-02-15T11:50:15;17.73;;;14.13;;
11797;SDS011;5956;51.428;6.682;2023-02-15T11:52:43;18.13;;;14.73;;
11797;SDS011;5956;51.428;6.682;2023-02-15T11:55:11;18.53;;;15.33;;
11797;SDS011;5956;51.428;6.682;2023-02-15T11:57:39;16.00;;;14.37;;
11797;SDS011;5956;51.428;6.682;2023-02-15T12:00:09;19.10;;;15.40;;
11797;SDS011;5956;51.428;6.682;2023-02-15T12:02:39;18.23;;;14.87;;
11797;SDS011;5956;51.428;6.682;2023-02-15T12:05:09;20.77;;;16.57;;
11797;SDS011;5956;51.428;6.682;2023-02-15T12:07:37;16.93;;;14.70;;
11797;SDS011;5956;51.428;6.682;2023-02-15T12:10:13;17.47;;;15.53;;
11797;SDS011;5956;51.428;6.682;2023-02-15T12:12:43;21.73;;;16.90;;
11797;SDS011;5956;51.428;6.682;2023-02-15T12:15:10;20.77;;;16.60;;
11797;SDS011;5956;51.428;6.682;2023-02-15T12:17:38;22.97;;;16.30;;
11797;SDS011;5956;51.428;6.682;2023-02-15T12:20:20;24.70;;;18.47;;
11797;SDS011;5956;51.428;6.682;2023-02-15T12:22:49;23.57;;;19.07;;
11797;SDS011;5956;51.428;6.682;2023-02-15T12:25:20;28.73;;;21.13;;
11797;SDS011;5956;51.428;6.682;2023-02-15T12:27:48;28.27;;;19.60;;
11797;SDS011;5956;51.428;6.682;2023-02-15T12:30:16;25.67;;;19.10;;
11797;SDS011;5956;51.428;6.682;2023-02-15T12:32:47;23.47;;;17.97;;
11797;SDS011;5956;51.428;6.682;2023-02-15T12:35:20;25.13;;;18.70;;
11797;SDS011;5956;51.428;6.682;2023-02-15T12:37:51;33.43;;;24.50;;
11797;SDS011;5956;51.428;6.682;2023-02-15T12:40:20;28.90;;;21.83;;
11797;SDS011;5956;51.428;6.682;2023-02-15T12:42:46;28.70;;;20.47;;
11797;SDS011;5956;51.428;6.682;2023-02-15T12:45:21;24.43;;;17.97;;
11797;SDS011;5956;51.428;6.682;2023-02-15T12:47:47;22.57;;;18.40;;
11797;SDS011;5956;51.428;6.682;2023-02-15T12:50:35;26.63;;;19.80;;
11797;SDS011;5956;51.428;6.682;2023-02-15T12:53:08;26.27;;;19.27;;
11797;SDS011;5956;51.428;6.682;2023-02-15T12:55:38;20.37;;;14.27;;
11797;SDS011;5956;51.428;6.682;2023-02-15T12:58:12;19.13;;;15.77;;
11797;SDS011;5956;51.428;6.682;2023-02-15T13:00:41;21.37;;;16.60;;
11797;SDS011;5956;51.428;6.682;2023-02-15T13:03:15;24.27;;;16.30;;
11797;SDS011;5956;51.428;6.682;2023-02-15T13:05:43;16.97;;;14.53;;
11797;SDS011;5956;51.428;6.682;2023-02-15T13:08:11;17.23;;;14.33;;
11797;SDS011;5956;51.428;6.682;2023-02-15T13:10:39;20.17;;;16.37;;
11797;SDS011;5956;51.428;6.682;2023-02-15T13:13:09;24.87;;;18.90;;
11797;SDS011;5956;51.428;6.682;2023-02-15T13:15:37;25.13;;;18.27;;
11797;SDS011;5956;51.428;6.682;2023-02-15T13:18:05;71.87;;;20.17;;
11797;SDS011;5956;51.428;6.682;2023-02-15T13:20:37;40.87;;;17.23;;
11797;SDS011;5956;51.428;6.682;2023-02-15T13:23:09;16.50;;;14.40;;
11797;SDS011;5956;51.428;6.682;2023-02-15T13:25:41;18.30;;;14.20;;
11797;SDS011;5956;51.428;6.682;2023-02-15T13:28:12;22.35;;;17.90;;
11797;SDS011;5956;51.428;6.682;2023-02-15T13:30:42;17.87;;;15.10;;
11797;SDS011;5956;51.428;6.682;2023-02-15T13:33:10;19.33;;;15.23;;
11797;SDS011;5956;51.428;6.682;2023-02-15T13:35:41;17.58;;;14.70;;
11797;SDS011;5956;51.428;6.682;2023-02-15T13:40:53;18.13;;;13.73;;
11797;SDS011;5956;51.428;6.682;2023-02-15T13:43:25;18.83;;;14.63;;
11797;SDS011;5956;51.428;6.682;2023-02-15T13:45:56;16.88;;;14.82;;
11797;SDS011;5956;51.428;6.682;2023-02-15T13:48:27;21.67;;;14.13;;
11797;SDS011;5956;51.428;6.682;2023-02-15T13:51:02;18.95;;;14.90;;
11797;SDS011;5956;51.428;6.682;2023-02-15T13:53:35;32.63;;;14.97;;
11797;SDS011;5956;51.428;6.682;2023-02-15T13:56:07;19.75;;;15.20;;
11797;SDS011;5956;51.428;6.682;2023-02-15T14:01:24;16.45;;;13.73;;
11797;SDS011;5956;51.428;6.682;2023-02-15T14:06:53;15.77;;;13.13;;
11797;SDS011;5956;51.428;6.682;2023-02-15T14:09:29;17.83;;;14.33;;
11797;SDS011;5956;51.428;6.682;2023-02-15T14:12:02;15.50;;;13.07;;
11797;SDS011;5956;51.428;6.682;2023-02-15T14:14:52;18.90;;;14.17;;
11797;SDS011;5956;51.428;6.682;2023-02-15T14:17:27;18.55;;;13.80;;
11797;SDS011;5956;51.428;6.682;2023-02-15T14:19:57;16.85;;;12.48;;
11797;SDS011;5956;51.428;6.682;2023-02-15T14:22:25;17.53;;;13.63;;
11797;SDS011;5956;51.428;6.682;2023-02-15T14:24:59;19.40;;;13.33;;
11797;SDS011;5956;51.428;6.682;2023-02-15T14:27:37;20.27;;;14.30;;
11797;SDS011;5956;51.428;6.682;2023-02-15T14:30:12;17.80;;;14.20;;
11797;SDS011;5956;51.428;6.682;2023-02-15T14:32:41;18.77;;;13.43;;
11797;SDS011;5956;51.428;6.682;2023-02-15T14:35:12;18.00;;;13.53;;
11797;SDS011;5956;51.428;6.682;2023-02-15T14:37:41;16.87;;;13.10;;
11797;SDS011;5956;51.428;6.682;2023-02-15T14:40:08;16.97;;;14.13;;
11797;SDS011;5956;51.428;6.682;2023-02-15T14:42:58;19.23;;;13.90;;
11797;SDS011;5956;51.428;6.682;2023-02-15T14:45:28;17.77;;;14.10;;
11797;SDS011;5956;51.428;6.682;2023-02-15T14:47:57;17.87;;;14.60;;
11797;SDS011;5956;51.428;6.682;2023-02-15T14:50:37;18.50;;;14.27;;
11797;SDS011;5956;51.428;6.682;2023-02-15T14:53:22;19.33;;;14.80;;
11797;SDS011;5956;51.428;6.682;2023-02-15T14:56:04;16.53;;;14.73;;
11797;SDS011;5956;51.428;6.682;2023-02-15T14:58:33;18.33;;;14.37;;
11797;SDS011;5956;51.428;6.682;2023-02-15T15:01:03;16.47;;;14.70;;
11797;SDS011;5956;51.428;6.682;2023-02-15T15:03:30;19.43;;;14.53;;
11797;SDS011;5956;51.428;6.682;2023-02-15T15:05:57;24.50;;;17.60;;
11797;SDS011;5956;51.428;6.682;2023-02-15T15:08:26;20.17;;;15.50;;
11797;SDS011;5956;51.428;6.682;2023-02-15T15:10:54;17.30;;;13.97;;
11797;SDS011;5956;51.428;6.682;2023-02-15T15:13:38;16.33;;;14.07;;
11797;SDS011;5956;51.428;6.682;2023-02-15T15:16:27;15.37;;;13.73;;
11797;SDS011;5956;51.428;6.682;2023-02-15T15:18:56;17.23;;;14.67;;